Time;durP1;ratioP1;P1;durP2;ratioP2;P2;SDS_P1;SDS_P2;PMS_P1;PMS_P2;Temp;Humidity;BMP_temperature;BMP_pressure;BME280_temperature;BME280_humidity;BME280_pressure;Samples;Min_cycle;Max_cycle;Signal;HPM_P1;HPM_P2
2021/01/18 00:01:38;;;;;;;21.75;15.25;;;2.80;99.90;;;;;;5011160;28;20549;-72
2021/01/18 00:04:04;;;;;;;21.02;14.77;;;2.80;99.90;;;;;;5012679;28;20034;-72
2021/01/18 00:06:30;;;;;;;20.17;14.05;;;2.80;99.90;;;;;;4994731;28;20112;-72
2021/01/18 00:08:56;;;;;;;20.55;14.02;;;2.80;99.90;;;;;;5012008;28;20022;-72
2021/01/18 00:11:22;;;;;;;20.80;15.82;;;2.80;99.90;;;;;;5010430;28;20045;-72
2021/01/18 00:13:51;;;;;;;19.30;14.07;;;2.90;99.90;;;;;;5009550;28;20045;-73
2021/01/18 00:16:21;;;;;;;19.88;13.52;;;2.70;99.90;;;;;;5013566;28;20014;-73
2021/01/18 00:18:48;;;;;;;21.33;13.32;;;2.70;99.90;;;;;;5013656;28;20022;-73
2021/01/18 00:21:14;;;;;;;21.92;15.02;;;2.70;99.90;;;;;;5012077;28;20041;-73
2021/01/18 00:23:42;;;;;;;21.83;16.25;;;2.70;99.90;;;;;;5013906;28;20540;-73
2021/01/18 00:26:08;;;;;;;18.05;12.68;;;2.70;99.90;;;;;;5013245;28;20018;-74
2021/01/18 00:28:39;;;;;;;19.77;14.63;;;2.80;99.90;;;;;;5012957;28;20029;-73
2021/01/18 00:31:06;;;;;;;20.25;15.57;;;2.70;99.90;;;;;;5011980;28;20106;-72
2021/01/18 00:33:34;;;;;;;20.50;13.05;;;2.70;99.90;;;;;;5010911;28;20083;-73
2021/01/18 00:36:00;;;;;;;20.48;15.23;;;2.70;99.90;;;;;;5013373;28;20052;-73
2021/01/18 00:38:26;;;;;;;20.58;14.50;;;2.80;99.90;;;;;;5010032;28;20041;-73
2021/01/18 00:40:52;;;;;;;20.73;15.63;;;2.80;99.90;;;;;;5011300;28;20393;-73
2021/01/18 00:43:18;;;;;;;18.13;14.75;;;2.90;99.90;;;;;;5013634;28;20030;-74
2021/01/18 00:45:44;;;;;;;18.98;12.55;;;2.80;99.90;;;;;;5010878;28;20030;-73
2021/01/18 00:48:10;;;;;;;21.33;13.73;;;2.90;99.90;;;;;;5012879;28;20537;-72
2021/01/18 00:50:39;;;;;;;18.55;13.35;;;2.90;99.90;;;;;;5009718;28;20480;-73
2021/01/18 00:53:05;;;;;;;22.27;14.63;;;2.90;99.90;;;;;;5012758;28;20026;-73
2021/01/18 00:55:31;;;;;;;18.67;14.80;;;2.90;99.90;;;;;;5011429;28;20497;-73
2021/01/18 00:57:57;;;;;;;20.65;14.60;;;2.90;99.90;;;;;;5013153;28;20514;-73
2021/01/18 01:00:27;;;;;;;16.98;11.70;;;2.90;99.90;;;;;;5013594;28;20030;-73
2021/01/18 01:02:54;;;;;;;17.80;13.07;;;2.90;99.90;;;;;;5011334;28;20026;-72
2021/01/18 01:05:22;;;;;;;13.68;9.45;;;2.90;99.90;;;;;;5012350;28;20041;-73
2021/01/18 01:07:50;;;;;;;15.48;11.77;;;2.90;99.90;;;;;;5009413;28;20062;-73
2021/01/18 01:10:36;;;;;;;17.23;11.55;;;2.80;99.90;;;;;;5012273;28;20022;-73
2021/01/18 01:13:07;;;;;;;20.58;12.95;;;2.70;99.90;;;;;;5013351;28;20105;-72
2021/01/18 01:15:42;;;;;;;17.85;12.57;;;2.70;99.90;;;;;;5012009;28;20022;-73
2021/01/18 01:18:11;;;;;;;17.02;12.52;;;2.70;99.90;;;;;;5009028;28;20233;-73
2021/01/18 01:20:37;;;;;;;15.98;10.43;;;2.70;99.90;;;;;;5014866;28;20050;-73
2021/01/18 01:23:06;;;;;;;13.93;10.32;;;2.70;99.90;;;;;;5013548;28;20022;-73
2021/01/18 01:25:32;;;;;;;14.75;10.80;;;2.70;99.90;;;;;;5019756;28;20026;-72
2021/01/18 01:27:58;;;;;;;18.52;11.73;;;2.70;99.90;;;;;;5019628;28;20029;-72
2021/01/18 01:30:28;;;;;;;16.42;11.40;;;2.70;99.90;;;;;;5013038;28;20506;-72
2021/01/18 01:32:55;;;;;;;15.48;10.82;;;2.70;99.90;;;;;;5008354;28;20084;-72
2021/01/18 01:35:24;;;;;;;17.45;10.18;;;2.60;99.90;;;;;;5002482;28;20156;-72
2021/01/18 01:37:51;;;;;;;20.73;12.27;;;2.50;99.90;;;;;;5012666;28;20022;-73
2021/01/18 01:40:17;;;;;;;16.98;11.85;;;2.60;99.90;;;;;;5008879;28;20018;-73
2021/01/18 01:42:44;;;;;;;18.30;12.85;;;2.60;99.90;;;;;;5015507;28;20105;-72
2021/01/18 01:45:12;;;;;;;18.13;12.43;;;2.50;99.90;;;;;;5014226;28;20044;-72
2021/01/18 01:48:03;;;;;;;;;;;;;;;;;;;;;
2021/01/18 01:50:33;;;;;;;21.63;13.38;;;2.60;99.90;;;;;;5015181;28;20097;-73
2021/01/18 01:53:01;;;;;;;16.08;11.63;;;2.60;99.90;;;;;;5015344;28;20460;-72
2021/01/18 01:55:32;;;;;;;16.48;13.57;;;2.60;99.90;;;;;;5013856;28;20034;-73
2021/01/18 01:58:00;;;;;;;19.52;12.73;;;2.60;99.90;;;;;;5015602;28;20389;-73
2021/01/18 02:00:36;;;;;;;18.45;12.07;;;2.60;99.90;;;;;;5019712;28;20449;-74
2021/01/18 02:03:08;;;;;;;18.35;13.48;;;2.70;99.90;;;;;;5016644;28;20037;-73
2021/01/18 02:05:34;;;;;;;19.63;12.85;;;2.60;99.90;;;;;;5008404;28;20041;-73
2021/01/18 02:08:01;;;;;;;18.88;13.13;;;2.60;99.90;;;;;;5022357;28;20099;-74
2021/01/18 02:10:27;;;;;;;17.23;13.13;;;2.60;99.90;;;;;;5016411;28;20106;-73
2021/01/18 02:12:57;;;;;;;19.73;10.52;;;2.60;99.90;;;;;;5017730;28;20101;-73
2021/01/18 02:16:02;;;;;;;19.30;11.95;;;2.50;99.90;;;;;;5015198;28;20426;-73
2021/01/18 02:18:55;;;;;;;14.52;11.90;;;2.50;99.90;;;;;;4968612;28;20529;-73
2021/01/18 02:21:58;;;;;;;17.80;12.75;;;2.50;99.90;;;;;;5016917;28;20064;-73
2021/01/18 02:24:42;;;;;;;16.45;11.23;;;2.50;99.90;;;;;;5013587;28;20022;-73
2021/01/18 02:27:26;;;;;;;17.02;12.13;;;2.50;99.90;;;;;;5012246;28;20057;-73
2021/01/18 02:30:11;;;;;;;17.77;11.73;;;2.40;99.90;;;;;;5018135;28;20422;-73
2021/01/18 02:33:14;;;;;;;13.80;11.07;;;2.50;99.90;;;;;;5016192;28;20055;-73
2021/01/18 02:35:46;;;;;;;17.88;11.07;;;2.50;99.90;;;;;;5013915;28;20445;-73
2021/01/18 02:38:20;;;;;;;19.58;12.80;;;2.40;99.90;;;;;;5016770;28;20026;-73
2021/01/18 02:41:03;;;;;;;20.85;13.75;;;2.40;99.90;;;;;;5012923;28;20030;-75
2021/01/18 02:43:44;;;;;;;15.02;11.07;;;2.30;99.90;;;;;;5013153;28;20018;-75
2021/01/18 02:46:14;;;;;;;17.13;10.33;;;2.40;99.90;;;;;;5015355;28;20444;-73
2021/01/18 02:48:42;;;;;;;18.65;11.50;;;2.40;99.90;;;;;;5016821;28;20014;-73
2021/01/18 02:51:13;;;;;;;14.18;10.98;;;2.40;99.90;;;;;;5013204;28;20045;-73
2021/01/18 02:53:39;;;;;;;18.08;13.32;;;2.50;99.90;;;;;;5015772;28;20054;-73
2021/01/18 02:56:06;;;;;;;16.85;11.43;;;2.50;99.90;;;;;;5015190;28;20033;-73
2021/01/18 02:58:41;;;;;;;16.80;12.02;;;2.50;99.90;;;;;;5018378;28;20033;-73
2021/01/18 03:01:39;;;;;;;16.23;12.48;;;2.50;99.90;;;;;;5016234;28;20033;-73
2021/01/18 03:04:06;;;;;;;17.85;12.50;;;2.50;99.90;;;;;;5017061;28;20513;-73
2021/01/18 03:06:47;;;;;;;14.43;10.65;;;2.50;99.90;;;;;;5017498;28;20076;-73
2021/01/18 03:09:21;;;;;;;16.85;11.75;;;2.40;99.90;;;;;;5015034;28;20037;-73
2021/01/18 03:11:50;;;;;;;18.90;13.23;;;2.40;99.90;;;;;;5013897;28;20022;-74
2021/01/18 03:14:29;;;;;;;15.73;10.90;;;2.40;99.90;;;;;;5015646;28;20104;-73
2021/01/18 03:16:57;;;;;;;18.95;12.43;;;2.40;99.90;;;;;;5016625;28;20152;-73
2021/01/18 03:19:43;;;;;;;16.77;10.88;;;2.30;99.90;;;;;;5016255;28;20395;-73
2021/01/18 03:22:10;;;;;;;17.08;11.38;;;2.30;99.90;;;;;;5017703;28;20022;-73
2021/01/18 03:24:37;;;;;;;18.42;12.18;;;2.30;99.90;;;;;;5017167;28;20030;-74
2021/01/18 03:27:04;;;;;;;14.77;10.95;;;2.30;99.90;;;;;;5016602;28;20056;-73
2021/01/18 03:29:30;;;;;;;16.95;12.48;;;2.30;99.90;;;;;;5015588;28;20386;-73
2021/01/18 03:31:56;;;;;;;18.00;11.48;;;2.40;99.90;;;;;;5013111;28;20497;-73
2021/01/18 03:34:22;;;;;;;14.27;10.38;;;2.40;99.90;;;;;;5018316;28;20482;-73
2021/01/18 03:36:48;;;;;;;15.30;11.85;;;2.40;99.90;;;;;;5016263;28;20061;-73
2021/01/18 03:39:14;;;;;;;18.90;12.98;;;2.30;99.90;;;;;;5014368;28;20225;-73
2021/01/18 03:41:40;;;;;;;18.52;11.88;;;2.40;99.90;;;;;;5015519;28;20120;-73
2021/01/18 03:44:06;;;;;;;16.25;11.98;;;2.40;99.90;;;;;;5015946;28;20116;-73
2021/01/18 03:46:32;;;;;;;19.35;13.02;;;2.50;99.90;;;;;;5014635;28;20048;-73
2021/01/18 03:48:57;;;;;;;18.38;10.40;;;2.40;99.90;;;;;;5016139;28;20074;-74
2021/01/18 03:51:30;;;;;;;16.60;11.75;;;2.40;99.90;;;;;;5015778;28;20034;-73
2021/01/18 03:53:57;;;;;;;15.10;10.68;;;2.30;99.90;;;;;;5016150;28;20520;-73
2021/01/18 03:56:23;;;;;;;16.75;12.25;;;2.30;99.90;;;;;;5015787;28;20097;-73
2021/01/18 03:58:49;;;;;;;18.10;12.70;;;2.40;99.90;;;;;;5016105;28;20049;-73
2021/01/18 04:01:15;;;;;;;20.75;12.48;;;2.30;99.90;;;;;;5015407;28;20018;-73
2021/01/18 04:03:41;;;;;;;16.73;12.50;;;2.30;99.90;;;;;;5015938;28;20025;-73
2021/01/18 04:06:07;;;;;;;18.05;13.15;;;2.40;99.90;;;;;;5015186;28;20033;-73
2021/01/18 04:08:33;;;;;;;18.25;12.65;;;2.40;99.90;;;;;;5013499;28;20033;-73
2021/01/18 04:11:02;;;;;;;18.63;10.73;;;2.40;99.90;;;;;;4998968;28;20022;-73
2021/01/18 04:13:28;;;;;;;15.45;11.60;;;2.40;99.90;;;;;;5016324;28;20030;-73
2021/01/18 04:15:54;;;;;;;15.02;11.60;;;2.40;99.90;;;;;;5015604;28;20112;-74
2021/01/18 04:18:20;;;;;;;16.23;11.93;;;2.40;99.90;;;;;;5016788;28;20045;-73
2021/01/18 04:20:46;;;;;;;15.05;10.98;;;2.50;99.90;;;;;;5015411;28;20484;-74
2021/01/18 04:23:12;;;;;;;17.00;12.32;;;2.40;99.90;;;;;;5015826;28;20057;-73
2021/01/18 04:25:38;;;;;;;19.77;12.60;;;2.40;99.90;;;;;;5012940;28;20036;-73
2021/01/18 04:28:05;;;;;;;17.20;11.88;;;2.40;99.90;;;;;;5017029;28;20057;-73
2021/01/18 04:30:33;;;;;;;22.08;14.07;;;2.30;99.90;;;;;;5014751;28;20088;-73
2021/01/18 04:33:03;;;;;;;21.27;13.95;;;2.30;99.90;;;;;;5012718;28;20030;-73
2021/01/18 04:35:30;;;;;;;19.75;16.48;;;2.30;99.90;;;;;;5016513;28;20025;-74
2021/01/18 04:37:56;;;;;;;21.80;14.45;;;2.30;99.90;;;;;;5015031;28;20064;-73
2021/01/18 04:40:24;;;;;;;23.35;13.05;;;2.30;99.90;;;;;;5009803;28;20034;-73
2021/01/18 04:42:50;;;;;;;17.90;12.32;;;2.30;99.90;;;;;;5016254;28;20030;-74
2021/01/18 04:45:18;;;;;;;19.63;14.38;;;2.30;99.90;;;;;;5015610;28;20022;-73
2021/01/18 04:47:46;;;;;;;15.30;11.45;;;2.30;99.90;;;;;;5015605;28;20452;-73
2021/01/18 04:50:23;;;;;;;13.30;10.43;;;2.20;99.90;;;;;;5013416;28;20049;-73
2021/01/18 04:52:55;;;;;;;15.15;11.57;;;2.10;99.90;;;;;;5013839;28;20029;-73
2021/01/18 04:55:32;;;;;;;18.08;12.35;;;2.10;99.90;;;;;;5015319;28;20026;-73
2021/01/18 04:58:07;;;;;;;17.30;11.73;;;2.10;99.90;;;;;;5015080;28;20129;-73
2021/01/18 05:00:46;;;;;;;21.70;14.55;;;2.20;99.90;;;;;;5014034;28;20096;-74
2021/01/18 05:03:15;;;;;;;17.48;13.18;;;2.30;99.90;;;;;;5010910;28;20025;-73
2021/01/18 05:05:56;;;;;;;19.35;13.15;;;2.30;99.90;;;;;;5015247;28;20057;-73
2021/01/18 05:08:40;;;;;;;18.73;13.55;;;2.30;99.90;;;;;;5014680;28;20100;-74
2021/01/18 05:11:08;;;;;;;21.38;13.10;;;2.30;99.90;;;;;;5012627;28;20060;-74
2021/01/18 05:13:34;;;;;;;19.85;12.55;;;2.40;99.90;;;;;;5016455;28;20038;-73
2021/01/18 05:16:00;;;;;;;20.35;14.48;;;2.40;99.90;;;;;;5020020;28;20025;-74
2021/01/18 05:18:33;;;;;;;15.77;12.18;;;2.30;99.90;;;;;;5017115;28;20026;-73
2021/01/18 05:21:10;;;;;;;23.70;14.55;;;2.40;99.90;;;;;;5014512;28;20398;-73
2021/01/18 05:23:45;;;;;;;19.95;14.82;;;2.40;99.90;;;;;;5010139;28;20023;-73
2021/01/18 05:26:18;;;;;;;17.40;12.55;;;2.50;99.90;;;;;;5009855;28;20054;-73
2021/01/18 05:28:54;;;;;;;18.77;13.75;;;2.50;99.90;;;;;;5012375;28;20060;-73
2021/01/18 05:31:26;;;;;;;19.92;14.65;;;2.60;99.90;;;;;;5009123;28;20054;-73
2021/01/18 05:34:10;;;;;;;21.02;15.02;;;2.70;99.90;;;;;;5017286;28;20030;-73
2021/01/18 05:36:43;;;;;;;14.07;11.10;;;2.70;99.90;;;;;;5018348;28;20025;-73
2021/01/18 05:39:27;;;;;;;19.85;13.88;;;2.70;99.90;;;;;;5018145;28;20026;-73
2021/01/18 05:41:54;;;;;;;19.17;11.93;;;2.70;99.90;;;;;;5016824;28;20386;-74
2021/01/18 05:44:29;;;;;;;19.42;13.82;;;2.60;99.90;;;;;;5019306;28;20041;-75
2021/01/18 05:47:05;;;;;;;20.33;14.32;;;2.60;99.90;;;;;;5017754;28;20058;-73
2021/01/18 05:49:46;;;;;;;17.85;13.35;;;2.60;99.90;;;;;;5018107;28;20211;-73
2021/01/18 05:52:32;;;;;;;19.75;13.95;;;2.60;99.90;;;;;;5014573;28;20014;-73
2021/01/18 05:55:20;;;;;;;20.17;13.52;;;2.60;99.90;;;;;;5017479;28;20080;-74
2021/01/18 05:57:48;;;;;;;21.83;14.43;;;2.60;99.90;;;;;;5018493;28;20030;-73
2021/01/18 06:00:29;;;;;;;19.40;14.23;;;2.70;99.90;;;;;;5017124;28;20026;-73
2021/01/18 06:03:00;;;;;;;18.63;13.90;;;2.70;99.90;;;;;;5018139;28;20030;-74
2021/01/18 06:05:30;;;;;;;17.25;13.13;;;2.80;99.90;;;;;;5018958;28;20057;-73
2021/01/18 06:08:15;;;;;;;19.48;12.77;;;2.80;99.90;;;;;;5018250;28;20022;-73
2021/01/18 06:11:01;;;;;;;;;;;;;;;;;;;;;
2021/01/18 06:13:37;;;;;;;22.63;15.63;;;2.90;99.90;;;;;;5015622;28;20112;-73
2021/01/18 06:16:02;;;;;;;18.55;11.95;;;2.80;99.90;;;;;;5017564;28;20018;-74
2021/01/18 06:18:33;;;;;;;16.08;12.32;;;2.80;99.90;;;;;;5018961;28;20556;-73
2021/01/18 06:21:00;;;;;;;20.33;12.90;;;2.70;99.90;;;;;;5015316;28;20137;-73
2021/01/18 06:23:27;;;;;;;16.23;11.93;;;2.70;99.90;;;;;;5019180;28;20026;-73
2021/01/18 06:25:54;;;;;;;18.23;12.70;;;2.80;99.90;;;;;;5015059;28;20025;-73
2021/01/18 06:28:37;;;;;;;20.30;14.18;;;2.80;99.90;;;;;;5016554;28;20018;-73
2021/01/18 06:31:11;;;;;;;18.40;12.60;;;2.90;99.90;;;;;;5014714;28;20086;-73
2021/01/18 06:33:46;;;;;;;18.33;12.57;;;2.70;99.90;;;;;;5017500;28;20050;-72
2021/01/18 06:36:15;;;;;;;24.48;13.55;;;2.70;99.90;;;;;;5012655;28;20076;-71
2021/01/18 06:38:42;;;;;;;16.67;12.23;;;2.70;99.90;;;;;;5016161;28;20030;-73
2021/01/18 06:41:09;;;;;;;20.52;12.57;;;2.70;99.90;;;;;;5009368;28;20030;-73
2021/01/18 06:43:36;;;;;;;19.10;13.35;;;2.80;99.90;;;;;;5013934;28;20510;-72
2021/01/18 06:46:27;;;;;;;16.05;12.57;;;2.80;99.90;;;;;;5015294;28;20034;-71
2021/01/18 06:48:53;;;;;;;17.55;12.25;;;2.80;99.90;;;;;;5015986;28;20075;-73
2021/01/18 06:51:24;;;;;;;17.02;11.52;;;2.90;99.90;;;;;;5014669;28;20080;-71
2021/01/18 06:53:51;;;;;;;18.55;12.10;;;2.90;99.90;;;;;;5015915;28;20036;-73
2021/01/18 06:56:25;;;;;;;20.85;13.27;;;3.00;99.90;;;;;;5015105;28;20101;-73
2021/01/18 06:59:08;;;;;;;16.92;12.80;;;3.00;99.90;;;;;;5010004;28;20030;-73
2021/01/18 07:01:45;;;;;;;17.48;12.57;;;3.00;99.90;;;;;;5013100;28;20030;-73
2021/01/18 07:04:38;;;;;;;19.52;14.25;;;2.90;99.90;;;;;;5016249;28;20018;-75
2021/01/18 07:07:30;;;;;;;22.42;13.52;;;3.10;99.90;;;;;;5011976;28;20042;-75
2021/01/18 07:09:59;;;;;;;22.08;12.80;;;3.20;99.90;;;;;;5017933;28;20026;-77
2021/01/18 07:12:27;;;;;;;19.55;14.18;;;3.40;99.90;;;;;;5015485;28;20026;-77
2021/01/18 07:15:11;;;;;;;23.70;13.30;;;3.50;99.90;;;;;;5023838;28;20092;-75
2021/01/18 07:17:55;;;;;;;22.73;13.63;;;3.60;99.90;;;;;;5011123;28;20050;-77
2021/01/18 07:20:25;;;;;;;20.25;15.13;;;3.80;99.90;;;;;;5011880;28;20022;-75
2021/01/18 07:23:08;;;;;;;20.08;14.40;;;3.90;99.90;;;;;;5014343;28;20032;-76
2021/01/18 07:25:36;;;;;;;19.83;15.35;;;4.00;99.90;;;;;;5011130;28;20215;-75
2021/01/18 07:28:04;;;;;;;19.63;14.68;;;4.00;99.90;;;;;;5016816;28;20034;-76
2021/01/18 07:30:31;;;;;;;19.75;14.73;;;4.00;99.90;;;;;;5015011;28;20030;-76
2021/01/18 07:33:15;;;;;;;20.65;14.95;;;3.90;99.90;;;;;;5014942;28;20060;-76
2021/01/18 07:35:44;;;;;;;29.55;13.98;;;3.90;99.90;;;;;;5008256;28;20026;-77
2021/01/18 07:38:15;;;;;;;27.90;15.65;;;4.00;99.90;;;;;;5009197;28;20029;-76
2021/01/18 07:41:02;;;;;;;18.63;14.70;;;4.10;99.90;;;;;;5015397;28;20026;-77
2021/01/18 07:43:37;;;;;;;19.38;14.30;;;4.20;99.90;;;;;;5013327;28;20489;-77
2021/01/18 07:46:24;;;;;;;19.25;14.88;;;4.30;99.90;;;;;;5010207;28;20528;-77
2021/01/18 07:48:54;;;;;;;23.65;15.20;;;4.40;99.90;;;;;;5008442;28;20292;-77
2021/01/18 07:51:21;;;;;;;26.50;17.45;;;4.50;99.90;;;;;;5007803;28;20022;-76
2021/01/18 07:53:50;;;;;;;23.45;15.13;;;4.50;99.90;;;;;;5017656;28;20670;-77
2021/01/18 07:56:25;;;;;;;26.60;16.15;;;4.50;99.90;;;;;;5016174;28;20073;-77
2021/01/18 07:59:07;;;;;;;26.10;17.20;;;4.60;99.90;;;;;;5036751;28;20087;-76
2021/01/18 08:01:36;;;;;;;26.80;15.23;;;4.50;99.90;;;;;;5029651;28;20037;-77
2021/01/18 08:04:23;;;;;;;24.40;14.27;;;4.40;99.90;;;;;;5022785;28;20014;-77
2021/01/18 08:07:08;;;;;;;21.83;12.27;;;4.40;99.90;;;;;;5016971;28;20026;-77
2021/01/18 08:09:41;;;;;;;18.98;12.23;;;4.30;99.90;;;;;;5028042;28;20046;-76
2021/01/18 08:12:32;;;;;;;15.65;12.50;;;4.30;99.90;;;;;;5028512;28;20025;-77
2021/01/18 08:15:08;;;;;;;19.40;12.30;;;4.50;99.90;;;;;;5024434;28;20032;-77
2021/01/18 08:17:34;;;;;;;16.67;13.13;;;4.50;99.90;;;;;;5022368;28;20049;-77
2021/01/18 08:20:07;;;;;;;14.70;12.05;;;4.40;99.90;;;;;;5027318;28;20029;-77
2021/01/18 08:22:33;;;;;;;24.23;12.27;;;4.40;99.90;;;;;;5025492;28;20028;-77
2021/01/18 08:25:01;;;;;;;16.88;13.10;;;4.50;99.90;;;;;;5026712;28;20056;-77
2021/01/18 08:27:47;;;;;;;18.20;12.82;;;4.50;99.90;;;;;;5028920;28;20025;-76
2021/01/18 08:30:20;;;;;;;22.45;12.88;;;4.60;99.90;;;;;;5030142;28;20021;-77
2021/01/18 08:32:58;;;;;;;19.52;12.32;;;4.70;99.90;;;;;;5025752;28;20033;-76
2021/01/18 08:35:31;;;;;;;15.65;10.65;;;4.70;99.90;;;;;;5026139;28;20048;-75
2021/01/18 08:38:19;;;;;;;17.33;12.20;;;4.70;99.90;;;;;;5028395;28;20030;-76
2021/01/18 08:40:50;;;;;;;18.00;12.48;;;4.90;99.90;;;;;;5029367;28;20099;-75
2021/01/18 08:43:19;;;;;;;16.77;13.25;;;4.90;99.90;;;;;;5026797;28;20021;-76
2021/01/18 08:45:53;;;;;;;15.85;12.02;;;4.90;99.90;;;;;;5031134;28;20041;-75
2021/01/18 08:48:26;;;;;;;19.70;14.15;;;4.90;99.90;;;;;;5030179;28;20041;-76
2021/01/18 08:50:58;;;;;;;18.90;12.65;;;4.80;99.90;;;;;;5025997;28;20033;-76
2021/01/18 08:53:33;;;;;;;19.90;14.77;;;4.70;99.90;;;;;;5030000;28;20028;-75
2021/01/18 08:56:12;;;;;;;22.13;14.55;;;4.60;99.90;;;;;;5028261;28;20093;-76
2021/01/18 08:58:48;;;;;;;25.35;13.70;;;4.70;99.90;;;;;;5028294;28;20014;-76
2021/01/18 09:01:22;;;;;;;21.23;14.50;;;4.80;99.90;;;;;;5029111;28;20218;-79
2021/01/18 09:04:01;;;;;;;23.20;14.35;;;4.90;99.90;;;;;;5023241;28;20037;-75
2021/01/18 09:06:28;;;;;;;19.63;12.52;;;4.90;99.90;;;;;;5028836;28;20032;-75
2021/01/18 09:09:08;;;;;;;18.42;12.80;;;4.80;99.90;;;;;;5031735;28;20063;-76
2021/01/18 09:11:34;;;;;;;24.25;13.18;;;4.80;99.90;;;;;;5028457;28;20033;-76
2021/01/18 09:14:06;;;;;;;20.92;11.85;;;4.80;99.90;;;;;;5017971;28;20195;-74
2021/01/18 09:16:32;;;;;;;15.40;11.40;;;4.80;99.90;;;;;;5022993;28;20033;-74
2021/01/18 09:19:06;;;;;;;17.98;12.38;;;4.90;99.90;;;;;;5016355;28;20038;-75
2021/01/18 09:21:33;;;;;;;16.40;11.63;;;5.00;99.90;;;;;;5014117;28;20026;-75
2021/01/18 09:24:05;;;;;;;19.48;12.75;;;5.20;99.90;;;;;;5020492;28;20026;-74
2021/01/18 09:26:40;;;;;;;28.92;19.90;;;5.20;99.90;;;;;;5019751;28;20047;-76
2021/01/18 09:29:08;;;;;;;15.82;12.07;;;5.30;99.90;;;;;;5007986;28;20524;-75
2021/01/18 09:31:35;;;;;;;20.92;14.85;;;5.30;99.90;;;;;;5017318;28;20041;-75
2021/01/18 09:34:19;;;;;;;30.20;13.18;;;5.40;99.90;;;;;;5017694;28;20029;-75
2021/01/18 09:36:45;;;;;;;17.15;12.23;;;5.30;99.90;;;;;;5016318;28;20068;-74
2021/01/18 09:39:19;;;;;;;14.40;9.93;;;5.40;99.90;;;;;;5018179;28;20026;-74
2021/01/18 09:41:45;;;;;;;15.38;11.80;;;5.50;99.90;;;;;;5017726;28;20022;-76
2021/01/18 09:44:12;;;;;;;21.35;12.32;;;5.70;99.90;;;;;;5017156;28;20394;-75
2021/01/18 09:46:41;;;;;;;13.13;11.20;;;5.80;99.90;;;;;;5017722;28;20462;-75
2021/01/18 09:49:10;;;;;;;13.10;11.02;;;5.90;99.90;;;;;;5017048;28;20030;-75
2021/01/18 09:51:36;;;;;;;18.98;12.15;;;6.00;99.90;;;;;;5015485;28;20034;-75
2021/01/18 09:54:02;;;;;;;17.75;11.80;;;6.10;99.90;;;;;;5018155;28;20053;-76
2021/01/18 09:56:30;;;;;;;14.98;11.43;;;6.00;99.90;;;;;;5016970;28;20029;-75
2021/01/18 09:58:58;;;;;;;17.38;11.98;;;6.20;99.90;;;;;;5011623;28;20022;-75
2021/01/18 10:01:26;;;;;;;17.60;12.07;;;6.00;99.90;;;;;;5015679;28;20300;-75
2021/01/18 10:04:02;;;;;;;18.88;11.93;;;6.10;99.90;;;;;;5016644;28;20022;-74
2021/01/18 10:06:30;;;;;;;18.73;11.10;;;6.20;99.90;;;;;;5015244;28;20026;-75
2021/01/18 10:09:04;;;;;;;15.45;11.35;;;6.30;99.90;;;;;;5016443;28;20508;-74
2021/01/18 10:11:49;;;;;;;28.70;11.52;;;6.30;99.90;;;;;;5016792;28;20018;-75
2021/01/18 10:14:23;;;;;;;20.77;12.13;;;6.50;99.90;;;;;;5015414;28;20029;-75
2021/01/18 10:17:15;;;;;;;13.82;10.75;;;6.50;99.90;;;;;;5016314;28;20069;-77
2021/01/18 10:19:42;;;;;;;19.48;11.30;;;6.60;99.90;;;;;;5014127;28;20109;-76
2021/01/18 10:22:19;;;;;;;28.50;14.13;;;6.60;99.90;;;;;;5001983;28;20021;-77
2021/01/18 10:24:58;;;;;;;14.88;10.20;;;6.70;99.90;;;;;;5025516;28;20112;-76
2021/01/18 10:27:29;;;;;;;20.75;12.02;;;6.70;99.90;;;;;;5027361;28;20484;-76
2021/01/18 10:30:12;;;;;;;13.48;10.75;;;7.00;99.90;;;;;;5017699;28;20097;-75
2021/01/18 10:32:43;;;;;;;17.60;11.48;;;7.00;99.90;;;;;;5018738;28;20040;-75
2021/01/18 10:35:27;;;;;;;19.67;10.23;;;7.10;99.90;;;;;;5034145;28;20554;-76
2021/01/18 10:37:53;;;;;;;15.93;10.35;;;7.00;99.90;;;;;;5018720;28;20028;-76
2021/01/18 10:40:23;;;;;;;17.58;10.48;;;7.10;99.90;;;;;;5000839;28;20019;-75
2021/01/18 10:42:53;;;;;;;14.15;9.70;;;7.10;99.90;;;;;;5003237;28;20082;-74
2021/01/18 10:45:25;;;;;;;16.95;10.73;;;7.10;99.90;;;;;;5013299;28;20032;-75
2021/01/18 10:47:59;;;;;;;14.25;11.23;;;7.20;99.90;;;;;;5019709;28;20025;-75
2021/01/18 10:50:33;;;;;;;15.75;11.13;;;7.20;99.90;;;;;;5019982;28;20052;-75
2021/01/18 10:53:08;;;;;;;14.60;12.52;;;7.30;99.90;;;;;;5015863;28;20394;-76
2021/01/18 10:55:35;;;;;;;13.85;10.15;;;7.40;99.90;;;;;;5017406;28;20030;-79
2021/01/18 10:58:01;;;;;;;15.80;12.93;;;7.50;99.90;;;;;;5017943;28;20037;-77
2021/01/18 11:00:29;;;;;;;18.40;11.75;;;7.50;99.90;;;;;;5012627;28;20050;-77
2021/01/18 11:03:01;;;;;;;21.63;14.15;;;7.40;99.90;;;;;;5017262;28;20497;-76
2021/01/18 11:05:30;;;;;;;;;;;7.60;99.90;;;;;;5017374;28;20026;-76
2021/01/18 11:07:59;;;;;;;26.00;11.82;;;7.70;99.90;;;;;;5018010;28;20440;-76
2021/01/18 11:10:26;;;;;;;21.80;13.38;;;7.80;99.90;;;;;;5018748;28;20018;-77
2021/01/18 11:13:13;;;;;;;18.27;12.15;;;7.90;99.90;;;;;;5018127;28;20474;-75
2021/01/18 11:15:44;;;;;;;16.77;11.70;;;8.10;99.90;;;;;;5017046;28;20057;-74
2021/01/18 11:18:12;;;;;;;16.45;12.18;;;8.20;99.90;;;;;;5017307;28;20037;-73
2021/01/18 11:20:44;;;;;;;21.88;11.23;;;8.30;99.90;;;;;;5016235;28;20069;-72
2021/01/18 11:23:10;;;;;;;14.88;11.77;;;8.40;99.90;;;;;;4995838;28;20508;-76
2021/01/18 11:25:39;;;;;;;19.25;13.02;;;8.50;99.90;;;;;;4997322;28;20022;-76
2021/01/18 11:28:16;;;;;;;24.45;13.40;;;8.50;99.90;;;;;;4999310;28;20042;-74
2021/01/18 11:30:43;;;;;;;18.40;11.98;;;8.60;99.90;;;;;;5015409;28;20029;-75
2021/01/18 11:33:10;;;;;;;22.20;12.43;;;8.60;99.90;;;;;;5016247;28;20068;-78
2021/01/18 11:35:39;;;;;;;19.60;11.35;;;8.70;99.90;;;;;;5016131;28;20018;-77
2021/01/18 11:38:12;;;;;;;16.10;12.80;;;8.70;99.90;;;;;;5016717;28;20436;-75
2021/01/18 11:40:38;;;;;;;16.38;13.07;;;8.60;99.90;;;;;;5016958;28;20018;-76
2021/01/18 11:43:03;;;;;;;20.55;12.88;;;8.70;99.90;;;;;;5015503;28;20109;-76
2021/01/18 11:45:30;;;;;;;12.02;9.88;;;8.70;99.90;;;;;;5015499;28;20076;-76
2021/01/18 11:47:56;;;;;;;11.43;9.43;;;8.50;99.90;;;;;;5015928;28;20021;-76
2021/01/18 11:50:24;;;;;;;16.73;11.10;;;8.50;99.90;;;;;;5016180;28;20030;-77
2021/01/18 11:52:54;;;;;;;38.63;16.00;;;8.50;99.90;;;;;;5014299;28;20029;-76
2021/01/18 11:55:21;;;;;;;19.48;11.02;;;8.50;99.90;;;;;;5014893;28;20029;-77
2021/01/18 11:57:48;;;;;;;17.88;12.50;;;8.30;99.90;;;;;;5016778;28;20040;-75
2021/01/18 12:00:26;;;;;;;19.40;12.48;;;8.40;99.90;;;;;;5016020;28;20076;-76
2021/01/18 12:02:53;;;;;;;22.17;11.57;;;8.50;99.90;;;;;;5017732;28;20026;-76
2021/01/18 12:05:22;;;;;;;17.35;12.65;;;8.50;99.90;;;;;;5016848;28;20468;-75
2021/01/18 12:07:54;;;;;;;18.15;13.63;;;8.60;99.90;;;;;;5016804;28;20338;-75
2021/01/18 12:10:20;;;;;;;;;;;8.70;99.90;;;;;;5018717;28;20049;-76
2021/01/18 12:12:46;;;;;;;21.42;12.25;;;8.70;99.90;;;;;;5017633;28;19905;-76
2021/01/18 12:15:12;;;;;;;21.88;13.98;;;8.70;99.90;;;;;;5016479;28;20056;-76
2021/01/18 12:17:45;;;;;;;16.58;12.60;;;8.50;99.90;;;;;;5016934;28;20308;-76
2021/01/18 12:20:15;;;;;;;17.55;12.18;;;8.60;99.90;;;;;;5016686;28;20025;-76
2021/01/18 12:22:41;;;;;;;15.00;12.35;;;8.80;99.90;;;;;;5017211;28;20095;-76
2021/01/18 12:25:08;;;;;;;18.25;13.57;;;8.80;99.90;;;;;;5011449;28;20501;-74
2021/01/18 12:27:34;;;;;;;24.42;11.73;;;8.70;99.90;;;;;;5012123;28;20050;-74
2021/01/18 12:30:01;;;;;;;20.10;13.00;;;8.70;99.90;;;;;;5010211;28;20080;-73
2021/01/18 12:32:27;;;;;;;13.98;11.13;;;8.60;99.90;;;;;;5009320;28;21137;-72
2021/01/18 12:34:53;;;;;;;21.30;13.18;;;8.50;99.90;;;;;;5011699;28;20034;-73
2021/01/18 12:37:19;;;;;;;27.58;14.05;;;8.60;99.90;;;;;;5012996;28;20034;-74
2021/01/18 12:39:45;;;;;;;16.08;11.65;;;8.50;99.90;;;;;;5011303;28;20030;-75
2021/01/18 12:42:11;;;;;;;20.45;12.52;;;8.60;99.90;;;;;;5010755;28;20026;-74
2021/01/18 12:44:37;;;;;;;20.15;12.02;;;8.60;99.90;;;;;;5013836;28;20036;-74
2021/01/18 12:47:04;;;;;;;17.67;12.10;;;8.70;99.90;;;;;;5011044;28;20042;-75
2021/01/18 12:49:30;;;;;;;26.83;14.93;;;8.60;99.90;;;;;;5007573;28;20049;-74
2021/01/18 12:51:56;;;;;;;22.00;11.80;;;8.60;99.90;;;;;;5006544;28;20026;-74
2021/01/18 12:54:22;;;;;;;18.90;12.35;;;8.60;99.90;;;;;;5010850;28;20167;-73
2021/01/18 12:56:51;;;;;;;24.40;14.60;;;8.60;99.90;;;;;;4996563;28;20437;-74
2021/01/18 12:59:18;;;;;;;20.10;12.90;;;8.50;99.90;;;;;;5012774;28;20018;-74
2021/01/18 13:01:44;;;;;;;16.17;11.75;;;8.60;99.90;;;;;;5014525;28;20034;-75
2021/01/18 13:04:10;;;;;;;25.73;15.30;;;8.80;99.90;;;;;;5014859;28;20363;-75